sensor_id;sensor_type;location;lat;lon;timestamp;temperature;humidity
4354;DHT22;11018;51.258;6.806;2022-07-30T00:01:02;17.50;77.60
4354;DHT22;11018;51.258;6.806;2022-07-30T00:03:28;17.40;79.10
4354;DHT22;11018;51.258;6.806;2022-07-30T00:05:54;17.30;80.60
4354;DHT22;11018;51.258;6.806;2022-07-30T00:08:21;17.20;82.50
4354;DHT22;11018;51.258;6.806;2022-07-30T00:10:47;17.10;83.30
4354;DHT22;11018;51.258;6.806;2022-07-30T00:13:13;17.00;84.00
4354;DHT22;11018;51.258;6.806;2022-07-30T00:15:39;17.10;85.30
4354;DHT22;11018;51.258;6.806;2022-07-30T00:18:05;17.10;85.10
4354;DHT22;11018;51.258;6.806;2022-07-30T00:20:30;17.20;84.20
4354;DHT22;11018;51.258;6.806;2022-07-30T00:22:56;17.10;83.70
4354;DHT22;11018;51.258;6.806;2022-07-30T00:25:21;17.10;84.00
4354;DHT22;11018;51.258;6.806;2022-07-30T00:27:47;17.00;84.80
4354;DHT22;11018;51.258;6.806;2022-07-30T00:30:13;16.90;86.30
4354;DHT22;11018;51.258;6.806;2022-07-30T00:32:39;16.80;87.70
4354;DHT22;11018;51.258;6.806;2022-07-30T00:35:05;16.70;89.00
4354;DHT22;11018;51.258;6.806;2022-07-30T00:37:31;16.60;89.80
4354;DHT22;11018;51.258;6.806;2022-07-30T00:39:57;16.60;90.20
4354;DHT22;11018;51.258;6.806;2022-07-30T00:42:22;16.60;90.30
4354;DHT22;11018;51.258;6.806;2022-07-30T00:44:52;16.50;90.70
4354;DHT22;11018;51.258;6.806;2022-07-30T00:47:17;16.50;92.60
4354;DHT22;11018;51.258;6.806;2022-07-30T00:49:43;16.40;92.00
4354;DHT22;11018;51.258;6.806;2022-07-30T00:52:09;16.60;90.10
4354;DHT22;11018;51.258;6.806;2022-07-30T00:54:35;16.60;89.10
4354;DHT22;11018;51.258;6.806;2022-07-30T00:57:00;16.50;90.50
4354;DHT22;11018;51.258;6.806;2022-07-30T00:59:26;16.40;92.00
4354;DHT22;11018;51.258;6.806;2022-07-30T01:01:53;16.30;93.50
4354;DHT22;11018;51.258;6.806;2022-07-30T01:04:18;16.30;93.50
4354;DHT22;11018;51.258;6.806;2022-07-30T01:06:44;16.30;94.40
4354;DHT22;11018;51.258;6.806;2022-07-30T01:09:10;16.30;94.20
4354;DHT22;11018;51.258;6.806;2022-07-30T01:11:38;16.40;93.10
4354;DHT22;11018;51.258;6.806;2022-07-30T01:14:05;16.40;93.60
4354;DHT22;11018;51.258;6.806;2022-07-30T01:16:32;16.40;92.60
4354;DHT22;11018;51.258;6.806;2022-07-30T01:18:58;16.40;92.60
4354;DHT22;11018;51.258;6.806;2022-07-30T01:21:47;16.40;92.20
4354;DHT22;11018;51.258;6.806;2022-07-30T01:24:24;16.40;92.20
4354;DHT22;11018;51.258;6.806;2022-07-30T01:26:53;16.40;91.60
4354;DHT22;11018;51.258;6.806;2022-07-30T01:29:21;16.40;91.60
4354;DHT22;11018;51.258;6.806;2022-07-30T01:31:49;16.40;90.80
4354;DHT22;11018;51.258;6.806;2022-07-30T01:34:18;16.40;92.50
4354;DHT22;11018;51.258;6.806;2022-07-30T01:36:45;16.30;91.10
4354;DHT22;11018;51.258;6.806;2022-07-30T01:39:12;16.50;91.30
4354;DHT22;11018;51.258;6.806;2022-07-30T01:41:40;16.80;86.30
4354;DHT22;11018;51.258;6.806;2022-07-30T01:44:07;17.00;81.50
4354;DHT22;11018;51.258;6.806;2022-07-30T01:46:35;17.10;79.60
4354;DHT22;11018;51.258;6.806;2022-07-30T01:49:01;17.20;74.90
4354;DHT22;11018;51.258;6.806;2022-07-30T01:51:28;17.30;73.30
4354;DHT22;11018;51.258;6.806;2022-07-30T01:53:55;17.20;73.70
4354;DHT22;11018;51.258;6.806;2022-07-30T01:56:23;17.20;73.90
4354;DHT22;11018;51.258;6.806;2022-07-30T01:58:51;17.20;73.80
4354;DHT22;11018;51.258;6.806;2022-07-30T02:01:18;17.20;73.80
4354;DHT22;11018;51.258;6.806;2022-07-30T02:03:44;17.20;74.60
4354;DHT22;11018;51.258;6.806;2022-07-30T02:06:18;17.20;74.90
4354;DHT22;11018;51.258;6.806;2022-07-30T02:08:54;17.20;74.90
4354;DHT22;11018;51.258;6.806;2022-07-30T02:11:20;17.10;75.20
4354;DHT22;11018;51.258;6.806;2022-07-30T02:14:10;17.10;75.20
4354;DHT22;11018;51.258;6.806;2022-07-30T02:16:39;17.10;76.30
4354;DHT22;11018;51.258;6.806;2022-07-30T02:19:12;17.10;76.00
4354;DHT22;11018;51.258;6.806;2022-07-30T02:21:41;17.10;75.30
4354;DHT22;11018;51.258;6.806;2022-07-30T02:24:11;17.00;75.80
4354;DHT22;11018;51.258;6.806;2022-07-30T02:26:40;17.10;75.60
4354;DHT22;11018;51.258;6.806;2022-07-30T02:29:07;17.00;76.40
4354;DHT22;11018;51.258;6.806;2022-07-30T02:31:34;17.00;76.80
4354;DHT22;11018;51.258;6.806;2022-07-30T02:34:03;17.00;76.80
4354;DHT22;11018;51.258;6.806;2022-07-30T02:36:31;16.90;78.40
4354;DHT22;11018;51.258;6.806;2022-07-30T02:38:58;16.80;78.80
4354;DHT22;11018;51.258;6.806;2022-07-30T02:41:26;16.80;79.10
4354;DHT22;11018;51.258;6.806;2022-07-30T02:43:54;16.80;78.80
4354;DHT22;11018;51.258;6.806;2022-07-30T02:46:22;16.80;79.70
4354;DHT22;11018;51.258;6.806;2022-07-30T02:48:49;16.80;79.10
4354;DHT22;11018;51.258;6.806;2022-07-30T02:51:17;16.70;79.60
4354;DHT22;11018;51.258;6.806;2022-07-30T02:53:45;16.80;78.90
4354;DHT22;11018;51.258;6.806;2022-07-30T02:56:12;16.70;79.80
4354;DHT22;11018;51.258;6.806;2022-07-30T02:58:42;16.70;79.60
4354;DHT22;11018;51.258;6.806;2022-07-30T03:01:10;16.70;79.60
4354;DHT22;11018;51.258;6.806;2022-07-30T03:03:37;16.60;79.80
4354;DHT22;11018;51.258;6.806;2022-07-30T03:06:04;16.70;80.10
4354;DHT22;11018;51.258;6.806;2022-07-30T03:08:31;16.60;80.20
4354;DHT22;11018;51.258;6.806;2022-07-30T03:10:57;16.60;80.10
4354;DHT22;11018;51.258;6.806;2022-07-30T03:13:24;16.60;80.00
4354;DHT22;11018;51.258;6.806;2022-07-30T03:15:50;16.60;80.10
4354;DHT22;11018;51.258;6.806;2022-07-30T03:18:18;16.60;80.00
4354;DHT22;11018;51.258;6.806;2022-07-30T03:20:55;16.60;80.30
4354;DHT22;11018;51.258;6.806;2022-07-30T03:23:23;16.60;81.10
4354;DHT22;11018;51.258;6.806;2022-07-30T03:26:08;16.60;80.90
4354;DHT22;11018;51.258;6.806;2022-07-30T03:28:37;16.60;80.40
4354;DHT22;11018;51.258;6.806;2022-07-30T03:31:04;16.60;80.70
4354;DHT22;11018;51.258;6.806;2022-07-30T03:33:31;16.50;81.00
4354;DHT22;11018;51.258;6.806;2022-07-30T03:35:57;16.50;81.70
4354;DHT22;11018;51.258;6.806;2022-07-30T03:38:24;16.50;82.00
4354;DHT22;11018;51.258;6.806;2022-07-30T03:40:50;16.40;82.80
4354;DHT22;11018;51.258;6.806;2022-07-30T03:43:16;16.40;83.40
4354;DHT22;11018;51.258;6.806;2022-07-30T03:45:43;16.30;84.00
4354;DHT22;11018;51.258;6.806;2022-07-30T03:48:10;16.10;87.60
4354;DHT22;11018;51.258;6.806;2022-07-30T03:50:39;16.10;89.30
4354;DHT22;11018;51.258;6.806;2022-07-30T03:53:07;16.00;89.60
4354;DHT22;11018;51.258;6.806;2022-07-30T03:55:33;16.10;88.70
4354;DHT22;11018;51.258;6.806;2022-07-30T03:58:00;16.00;88.80
4354;DHT22;11018;51.258;6.806;2022-07-30T04:00:26;16.00;91.00
4354;DHT22;11018;51.258;6.806;2022-07-30T04:02:53;16.00;90.60
4354;DHT22;11018;51.258;6.806;2022-07-30T04:05:19;15.80;92.20
4354;DHT22;11018;51.258;6.806;2022-07-30T04:07:45;15.70;95.90
4354;DHT22;11018;51.258;6.806;2022-07-30T04:10:12;15.90;95.10
4354;DHT22;11018;51.258;6.806;2022-07-30T04:12:38;16.20;89.90
4354;DHT22;11018;51.258;6.806;2022-07-30T04:15:04;16.30;87.40
4354;DHT22;11018;51.258;6.806;2022-07-30T04:17:43;16.50;85.60
4354;DHT22;11018;51.258;6.806;2022-07-30T04:20:22;16.50;84.50
4354;DHT22;11018;51.258;6.806;2022-07-30T04:22:48;16.50;85.20
4354;DHT22;11018;51.258;6.806;2022-07-30T04:25:14;16.50;84.70
4354;DHT22;11018;51.258;6.806;2022-07-30T04:27:41;16.50;85.00
4354;DHT22;11018;51.258;6.806;2022-07-30T04:30:07;16.50;84.90
4354;DHT22;11018;51.258;6.806;2022-07-30T04:32:33;16.40;88.60
4354;DHT22;11018;51.258;6.806;2022-07-30T04:34:59;16.30;89.70
4354;DHT22;11018;51.258;6.806;2022-07-30T04:37:26;16.30;91.20
4354;DHT22;11018;51.258;6.806;2022-07-30T04:39:52;16.40;90.50
4354;DHT22;11018;51.258;6.806;2022-07-30T04:42:25;16.50;87.80
4354;DHT22;11018;51.258;6.806;2022-07-30T04:44:51;16.60;86.90
4354;DHT22;11018;51.258;6.806;2022-07-30T04:47:18;16.60;87.30
4354;DHT22;11018;51.258;6.806;2022-07-30T04:49:44;16.70;87.10
4354;DHT22;11018;51.258;6.806;2022-07-30T04:52:11;16.80;86.00
4354;DHT22;11018;51.258;6.806;2022-07-30T04:54:45;16.60;88.10
4354;DHT22;11018;51.258;6.806;2022-07-30T04:57:12;16.70;89.00
4354;DHT22;11018;51.258;6.806;2022-07-30T04:59:39;16.90;86.20
4354;DHT22;11018;51.258;6.806;2022-07-30T05:02:06;17.00;85.80
4354;DHT22;11018;51.258;6.806;2022-07-30T05:04:33;17.00;85.90
4354;DHT22;11018;51.258;6.806;2022-07-30T05:07:00;16.80;89.00
4354;DHT22;11018;51.258;6.806;2022-07-30T05:09:27;16.70;92.00
4354;DHT22;11018;51.258;6.806;2022-07-30T05:11:54;16.60;94.00
4354;DHT22;11018;51.258;6.806;2022-07-30T05:14:21;16.60;94.50
4354;DHT22;11018;51.258;6.806;2022-07-30T05:16:48;16.70;95.20
4354;DHT22;11018;51.258;6.806;2022-07-30T05:19:13;16.60;96.10
4354;DHT22;11018;51.258;6.806;2022-07-30T05:21:39;16.60;96.70
4354;DHT22;11018;51.258;6.806;2022-07-30T05:24:05;16.70;97.00
4354;DHT22;11018;51.258;6.806;2022-07-30T05:26:31;16.80;96.70
4354;DHT22;11018;51.258;6.806;2022-07-30T05:28:56;16.90;95.10
4354;DHT22;11018;51.258;6.806;2022-07-30T05:31:22;17.00;95.60
4354;DHT22;11018;51.258;6.806;2022-07-30T05:33:47;17.10;95.90
4354;DHT22;11018;51.258;6.806;2022-07-30T05:36:13;17.50;89.90
4354;DHT22;11018;51.258;6.806;2022-07-30T05:38:38;17.50;89.30
4354;DHT22;11018;51.258;6.806;2022-07-30T05:41:04;17.60;90.70
4354;DHT22;11018;51.258;6.806;2022-07-30T05:43:30;17.70;88.10
4354;DHT22;11018;51.258;6.806;2022-07-30T05:45:55;17.80;86.90
4354;DHT22;11018;51.258;6.806;2022-07-30T05:48:21;17.90;87.10
4354;DHT22;11018;51.258;6.806;2022-07-30T05:50:46;17.90;85.30
4354;DHT22;11018;51.258;6.806;2022-07-30T05:53:12;17.80;85.80
4354;DHT22;11018;51.258;6.806;2022-07-30T05:55:37;17.80;85.70
4354;DHT22;11018;51.258;6.806;2022-07-30T05:58:03;17.60;90.00
4354;DHT22;11018;51.258;6.806;2022-07-30T06:00:28;17.50;93.10
4354;DHT22;11018;51.258;6.806;2022-07-30T06:02:54;17.60;91.10
4354;DHT22;11018;51.258;6.806;2022-07-30T06:05:19;17.70;91.90
4354;DHT22;11018;51.258;6.806;2022-07-30T06:07:46;17.70;92.30
4354;DHT22;11018;51.258;6.806;2022-07-30T06:10:11;17.40;94.00
4354;DHT22;11018;51.258;6.806;2022-07-30T06:12:37;17.30;98.10
4354;DHT22;11018;51.258;6.806;2022-07-30T06:15:03;17.30;99.60
4354;DHT22;11018;51.258;6.806;2022-07-30T06:17:29;17.40;99.30
4354;DHT22;11018;51.258;6.806;2022-07-30T06:19:54;17.40;99.90
4354;DHT22;11018;51.258;6.806;2022-07-30T06:22:20;17.40;99.90
4354;DHT22;11018;51.258;6.806;2022-07-30T06:24:45;17.30;99.90
4354;DHT22;11018;51.258;6.806;2022-07-30T06:27:11;17.40;99.90
4354;DHT22;11018;51.258;6.806;2022-07-30T06:29:37;17.50;98.80
4354;DHT22;11018;51.258;6.806;2022-07-30T06:32:02;17.40;98.90
4354;DHT22;11018;51.258;6.806;2022-07-30T06:34:28;17.40;99.60
4354;DHT22;11018;51.258;6.806;2022-07-30T06:36:54;17.40;99.50
4354;DHT22;11018;51.258;6.806;2022-07-30T06:39:20;17.40;98.00
4354;DHT22;11018;51.258;6.806;2022-07-30T06:41:45;17.40;99.00
4354;DHT22;11018;51.258;6.806;2022-07-30T06:44:11;17.40;99.00
4354;DHT22;11018;51.258;6.806;2022-07-30T06:46:36;17.50;97.50
4354;DHT22;11018;51.258;6.806;2022-07-30T06:49:02;17.40;98.50
4354;DHT22;11018;51.258;6.806;2022-07-30T06:51:28;17.50;97.40
4354;DHT22;11018;51.258;6.806;2022-07-30T06:53:53;17.60;95.80
4354;DHT22;11018;51.258;6.806;2022-07-30T06:56:19;17.70;92.40
4354;DHT22;11018;51.258;6.806;2022-07-30T06:58:44;17.90;90.30
4354;DHT22;11018;51.258;6.806;2022-07-30T07:01:10;18.20;85.70
4354;DHT22;11018;51.258;6.806;2022-07-30T07:03:36;18.70;81.70
4354;DHT22;11018;51.258;6.806;2022-07-30T07:06:01;19.20;68.90
4354;DHT22;11018;51.258;6.806;2022-07-30T07:08:28;19.30;65.50
4354;DHT22;11018;51.258;6.806;2022-07-30T07:10:53;19.60;62.40
4354;DHT22;11018;51.258;6.806;2022-07-30T07:13:19;19.80;58.50
4354;DHT22;11018;51.258;6.806;2022-07-30T07:15:44;19.80;56.20
4354;DHT22;11018;51.258;6.806;2022-07-30T07:18:10;19.60;56.10
4354;DHT22;11018;51.258;6.806;2022-07-30T07:20:37;19.20;56.40
4354;DHT22;11018;51.258;6.806;2022-07-30T07:23:03;19.10;58.60
4354;DHT22;11018;51.258;6.806;2022-07-30T07:25:28;19.00;59.70
4354;DHT22;11018;51.258;6.806;2022-07-30T07:27:54;18.90;60.60
4354;DHT22;11018;51.258;6.806;2022-07-30T07:30:19;19.10;60.70
4354;DHT22;11018;51.258;6.806;2022-07-30T07:32:45;19.10;56.50
4354;DHT22;11018;51.258;6.806;2022-07-30T07:35:11;19.10;56.90
4354;DHT22;11018;51.258;6.806;2022-07-30T07:37:38;19.20;57.00
4354;DHT22;11018;51.258;6.806;2022-07-30T07:40:04;19.10;57.50
4354;DHT22;11018;51.258;6.806;2022-07-30T07:42:30;19.10;58.80
4354;DHT22;11018;51.258;6.806;2022-07-30T07:44:55;19.20;59.40
4354;DHT22;11018;51.258;6.806;2022-07-30T07:47:21;19.20;56.70
4354;DHT22;11018;51.258;6.806;2022-07-30T07:49:46;19.20;56.60
4354;DHT22;11018;51.258;6.806;2022-07-30T07:52:12;19.30;54.10
4354;DHT22;11018;51.258;6.806;2022-07-30T07:54:37;19.40;55.20
4354;DHT22;11018;51.258;6.806;2022-07-30T07:57:03;19.50;54.90
4354;DHT22;11018;51.258;6.806;2022-07-30T07:59:32;19.60;57.50
4354;DHT22;11018;51.258;6.806;2022-07-30T08:01:58;19.80;55.60
4354;DHT22;11018;51.258;6.806;2022-07-30T08:04:23;19.90;54.20
4354;DHT22;11018;51.258;6.806;2022-07-30T08:06:49;20.10;54.50
4354;DHT22;11018;51.258;6.806;2022-07-30T08:09:15;20.10;52.50
4354;DHT22;11018;51.258;6.806;2022-07-30T08:11:40;20.10;52.60
4354;DHT22;11018;51.258;6.806;2022-07-30T08:14:06;20.00;51.40
4354;DHT22;11018;51.258;6.806;2022-07-30T08:16:31;20.00;51.20
4354;DHT22;11018;51.258;6.806;2022-07-30T08:18:57;20.00;50.60
4354;DHT22;11018;51.258;6.806;2022-07-30T08:21:22;20.10;50.00
4354;DHT22;11018;51.258;6.806;2022-07-30T08:23:49;20.20;50.70
4354;DHT22;11018;51.258;6.806;2022-07-30T08:26:15;20.60;46.90
4354;DHT22;11018;51.258;6.806;2022-07-30T08:28:40;20.70;46.00
4354;DHT22;11018;51.258;6.806;2022-07-30T08:31:08;20.90;45.10
4354;DHT22;11018;51.258;6.806;2022-07-30T08:33:33;20.70;46.00
4354;DHT22;11018;51.258;6.806;2022-07-30T08:35:59;20.60;47.10
4354;DHT22;11018;51.258;6.806;2022-07-30T08:38:25;20.60;48.00
4354;DHT22;11018;51.258;6.806;2022-07-30T08:40:54;20.70;46.90
4354;DHT22;11018;51.258;6.806;2022-07-30T08:43:19;20.70;47.50
4354;DHT22;11018;51.258;6.806;2022-07-30T08:45:46;21.10;45.80
4354;DHT22;11018;51.258;6.806;2022-07-30T08:48:13;21.60;41.80
4354;DHT22;11018;51.258;6.806;2022-07-30T08:50:40;22.00;39.20
4354;DHT22;11018;51.258;6.806;2022-07-30T08:53:09;22.20;38.20
4354;DHT22;11018;51.258;6.806;2022-07-30T08:55:34;22.30;38.60
4354;DHT22;11018;51.258;6.806;2022-07-30T08:58:00;22.30;36.20
4354;DHT22;11018;51.258;6.806;2022-07-30T09:00:27;22.00;37.10
4354;DHT22;11018;51.258;6.806;2022-07-30T09:02:53;21.90;38.00
4354;DHT22;11018;51.258;6.806;2022-07-30T09:05:18;22.10;36.70
4354;DHT22;11018;51.258;6.806;2022-07-30T09:07:44;22.10;35.50
4354;DHT22;11018;51.258;6.806;2022-07-30T09:10:10;22.30;35.00
4354;DHT22;11018;51.258;6.806;2022-07-30T09:12:38;22.10;35.80
4354;DHT22;11018;51.258;6.806;2022-07-30T09:17:46;21.90;36.70
4354;DHT22;11018;51.258;6.806;2022-07-30T09:20:11;21.90;35.60
4354;DHT22;11018;51.258;6.806;2022-07-30T09:22:42;22.10;35.30
4354;DHT22;11018;51.258;6.806;2022-07-30T09:25:07;22.40;31.90
4354;DHT22;11018;51.258;6.806;2022-07-30T09:27:43;22.50;32.20
4354;DHT22;11018;51.258;6.806;2022-07-30T09:30:09;22.60;31.60
4354;DHT22;11018;51.258;6.806;2022-07-30T09:32:49;22.80;29.70
4354;DHT22;11018;51.258;6.806;2022-07-30T09:35:15;22.70;29.80
4354;DHT22;11018;51.258;6.806;2022-07-30T09:37:41;22.20;30.10
4354;DHT22;11018;51.258;6.806;2022-07-30T09:40:14;22.10;31.50
4354;DHT22;11018;51.258;6.806;2022-07-30T09:42:40;22.30;30.30
4354;DHT22;11018;51.258;6.806;2022-07-30T09:45:08;22.50;28.60
4354;DHT22;11018;51.258;6.806;2022-07-30T09:47:44;22.70;26.90
4354;DHT22;11018;51.258;6.806;2022-07-30T09:50:14;22.80;24.60
4354;DHT22;11018;51.258;6.806;2022-07-30T09:52:41;23.10;24.80
4354;DHT22;11018;51.258;6.806;2022-07-30T09:55:08;23.20;23.60
4354;DHT22;11018;51.258;6.806;2022-07-30T09:57:34;23.10;23.40
4354;DHT22;11018;51.258;6.806;2022-07-30T10:00:21;23.00;23.20
4354;DHT22;11018;51.258;6.806;2022-07-30T10:02:47;22.90;22.90
4354;DHT22;11018;51.258;6.806;2022-07-30T10:05:15;23.20;22.20
4354;DHT22;11018;51.258;6.806;2022-07-30T10:07:56;23.40;20.60
4354;DHT22;11018;51.258;6.806;2022-07-30T10:10:24;23.50;20.60
4354;DHT22;11018;51.258;6.806;2022-07-30T10:13:01;23.60;19.50
4354;DHT22;11018;51.258;6.806;2022-07-30T10:15:29;23.60;18.90
4354;DHT22;11018;51.258;6.806;2022-07-30T10:17:55;23.60;19.00
4354;DHT22;11018;51.258;6.806;2022-07-30T10:20:21;23.40;19.30
4354;DHT22;11018;51.258;6.806;2022-07-30T10:22:47;23.30;19.30
4354;DHT22;11018;51.258;6.806;2022-07-30T10:25:17;23.10;20.00
4354;DHT22;11018;51.258;6.806;2022-07-30T10:27:43;23.10;18.40
4354;DHT22;11018;51.258;6.806;2022-07-30T10:30:10;23.20;18.10
4354;DHT22;11018;51.258;6.806;2022-07-30T10:32:37;23.20;18.70
4354;DHT22;11018;51.258;6.806;2022-07-30T10:35:03;23.30;18.70
4354;DHT22;11018;51.258;6.806;2022-07-30T10:37:30;23.40;17.10
4354;DHT22;11018;51.258;6.806;2022-07-30T10:48:03;23.20;16.50
4354;DHT22;11018;51.258;6.806;2022-07-30T10:50:29;23.30;15.00
4354;DHT22;11018;51.258;6.806;2022-07-30T10:52:59;23.30;15.70
4354;DHT22;11018;51.258;6.806;2022-07-30T10:55:33;23.40;15.00
4354;DHT22;11018;51.258;6.806;2022-07-30T10:58:12;23.50;14.50
4354;DHT22;11018;51.258;6.806;2022-07-30T11:03:25;23.40;13.70
4354;DHT22;11018;51.258;6.806;2022-07-30T11:08:43;23.30;14.80
4354;DHT22;11018;51.258;6.806;2022-07-30T11:14:00;23.30;15.10
4354;DHT22;11018;51.258;6.806;2022-07-30T11:19:12;23.60;14.70
4354;DHT22;11018;51.258;6.806;2022-07-30T11:21:43;23.80;13.40
4354;DHT22;11018;51.258;6.806;2022-07-30T11:24:43;23.80;13.20
4354;DHT22;11018;51.258;6.806;2022-07-30T11:27:36;23.70;12.70
4354;DHT22;11018;51.258;6.806;2022-07-30T11:30:04;23.60;13.90
4354;DHT22;11018;51.258;6.806;2022-07-30T11:32:31;23.60;15.50
4354;DHT22;11018;51.258;6.806;2022-07-30T11:35:19;23.70;15.70
4354;DHT22;11018;51.258;6.806;2022-07-30T11:40:27;23.90;13.90
4354;DHT22;11018;51.258;6.806;2022-07-30T11:45:41;24.30;12.10
4354;DHT22;11018;51.258;6.806;2022-07-30T11:48:13;24.50;12.90
4354;DHT22;11018;51.258;6.806;2022-07-30T11:50:41;24.40;12.90
4354;DHT22;11018;51.258;6.806;2022-07-30T11:53:12;24.60;12.10
4354;DHT22;11018;51.258;6.806;2022-07-30T11:55:40;24.40;12.30
4354;DHT22;11018;51.258;6.806;2022-07-30T11:58:28;24.30;13.50
4354;DHT22;11018;51.258;6.806;2022-07-30T12:00:56;24.40;13.00
4354;DHT22;11018;51.258;6.806;2022-07-30T12:03:24;24.60;12.30
4354;DHT22;11018;51.258;6.806;2022-07-30T12:05:54;24.80;12.10
4354;DHT22;11018;51.258;6.806;2022-07-30T12:08:20;25.00;11.00
4354;DHT22;11018;51.258;6.806;2022-07-30T12:10:57;25.10;10.30
4354;DHT22;11018;51.258;6.806;2022-07-30T12:13:23;25.50;9.70
4354;DHT22;11018;51.258;6.806;2022-07-30T12:15:49;25.50;10.00
4354;DHT22;11018;51.258;6.806;2022-07-30T12:18:26;25.60;8.20
4354;DHT22;11018;51.258;6.806;2022-07-30T12:20:57;25.60;8.30
4354;DHT22;11018;51.258;6.806;2022-07-30T12:23:23;25.80;8.30
4354;DHT22;11018;51.258;6.806;2022-07-30T12:25:50;26.00;7.40
4354;DHT22;11018;51.258;6.806;2022-07-30T12:28:20;26.20;7.40
4354;DHT22;11018;51.258;6.806;2022-07-30T12:30:46;26.40;6.90
4354;DHT22;11018;51.258;6.806;2022-07-30T12:33:12;26.20;7.00
4354;DHT22;11018;51.258;6.806;2022-07-30T12:35:46;25.90;7.10
4354;DHT22;11018;51.258;6.806;2022-07-30T12:38:13;25.80;7.50
4354;DHT22;11018;51.258;6.806;2022-07-30T12:40:55;25.70;9.00
4354;DHT22;11018;51.258;6.806;2022-07-30T12:43:52;26.10;8.20
4354;DHT22;11018;51.258;6.806;2022-07-30T12:46:24;26.30;7.80
4354;DHT22;11018;51.258;6.806;2022-07-30T12:49:17;26.60;7.00
4354;DHT22;11018;51.258;6.806;2022-07-30T12:51:51;27.00;7.10
4354;DHT22;11018;51.258;6.806;2022-07-30T12:54:18;27.10;6.20
4354;DHT22;11018;51.258;6.806;2022-07-30T12:57:00;26.80;6.40
4354;DHT22;11018;51.258;6.806;2022-07-30T12:59:27;26.40;7.30
4354;DHT22;11018;51.258;6.806;2022-07-30T13:01:53;26.00;8.60
4354;DHT22;11018;51.258;6.806;2022-07-30T13:04:20;26.00;8.30
4354;DHT22;11018;51.258;6.806;2022-07-30T13:07:08;26.40;7.80
4354;DHT22;11018;51.258;6.806;2022-07-30T13:09:35;26.60;8.10
4354;DHT22;11018;51.258;6.806;2022-07-30T13:12:01;26.10;9.30
4354;DHT22;11018;51.258;6.806;2022-07-30T13:14:27;26.00;10.20
4354;DHT22;11018;51.258;6.806;2022-07-30T13:16:53;26.20;9.80
4354;DHT22;11018;51.258;6.806;2022-07-30T13:19:23;26.30;9.90
4354;DHT22;11018;51.258;6.806;2022-07-30T13:21:49;26.30;10.20
4354;DHT22;11018;51.258;6.806;2022-07-30T13:24:16;26.30;10.80
4354;DHT22;11018;51.258;6.806;2022-07-30T13:26:41;26.30;9.90
4354;DHT22;11018;51.258;6.806;2022-07-30T13:29:07;26.50;9.80
4354;DHT22;11018;51.258;6.806;2022-07-30T13:31:34;27.30;9.20
4354;DHT22;11018;51.258;6.806;2022-07-30T13:33:59;27.70;7.50
4354;DHT22;11018;51.258;6.806;2022-07-30T13:36:26;28.10;6.90
4354;DHT22;11018;51.258;6.806;2022-07-30T13:38:52;28.50;6.50
4354;DHT22;11018;51.258;6.806;2022-07-30T13:41:17;28.50;5.50
4354;DHT22;11018;51.258;6.806;2022-07-30T13:43:43;28.20;6.00
4354;DHT22;11018;51.258;6.806;2022-07-30T13:46:09;28.00;5.50
4354;DHT22;11018;51.258;6.806;2022-07-30T13:48:35;28.00;5.90
4354;DHT22;11018;51.258;6.806;2022-07-30T13:51:02;28.00;6.40
4354;DHT22;11018;51.258;6.806;2022-07-30T13:53:28;27.80;6.50
4354;DHT22;11018;51.258;6.806;2022-07-30T13:55:54;28.10;6.00
4354;DHT22;11018;51.258;6.806;2022-07-30T13:58:20;28.80;5.60
4354;DHT22;11018;51.258;6.806;2022-07-30T14:00:46;29.40;4.30
4354;DHT22;11018;51.258;6.806;2022-07-30T14:03:13;30.00;2.80
4354;DHT22;11018;51.258;6.806;2022-07-30T14:05:39;29.80;2.90
4354;DHT22;11018;51.258;6.806;2022-07-30T14:08:09;29.20;3.80
4354;DHT22;11018;51.258;6.806;2022-07-30T14:10:36;29.20;4.00
4354;DHT22;11018;51.258;6.806;2022-07-30T14:13:03;29.90;3.20
4354;DHT22;11018;51.258;6.806;2022-07-30T14:15:29;29.20;3.70
4354;DHT22;11018;51.258;6.806;2022-07-30T14:17:56;28.80;3.90
4354;DHT22;11018;51.258;6.806;2022-07-30T14:20:22;28.10;6.00
4354;DHT22;11018;51.258;6.806;2022-07-30T14:22:55;28.00;6.30
4354;DHT22;11018;51.258;6.806;2022-07-30T14:25:21;28.00;6.00
4354;DHT22;11018;51.258;6.806;2022-07-30T14:27:47;28.10;5.90
4354;DHT22;11018;51.258;6.806;2022-07-30T14:30:13;27.90;5.70
4354;DHT22;11018;51.258;6.806;2022-07-30T14:32:39;28.90;4.70
4354;DHT22;11018;51.258;6.806;2022-07-30T14:35:06;30.40;3.10
4354;DHT22;11018;51.258;6.806;2022-07-30T14:37:34;31.10;2.20
4354;DHT22;11018;51.258;6.806;2022-07-30T14:40:00;30.20;2.10
4354;DHT22;11018;51.258;6.806;2022-07-30T14:42:25;29.40;2.90
4354;DHT22;11018;51.258;6.806;2022-07-30T14:44:51;29.20;4.20
4354;DHT22;11018;51.258;6.806;2022-07-30T14:47:17;29.20;3.50
4354;DHT22;11018;51.258;6.806;2022-07-30T14:49:42;29.10;4.10
4354;DHT22;11018;51.258;6.806;2022-07-30T14:52:08;29.80;2.50
4354;DHT22;11018;51.258;6.806;2022-07-30T14:54:33;29.60;2.50
4354;DHT22;11018;51.258;6.806;2022-07-30T14:56:59;29.40;2.70
4354;DHT22;11018;51.258;6.806;2022-07-30T14:59:25;29.50;3.00
4354;DHT22;11018;51.258;6.806;2022-07-30T15:01:52;29.80;2.70
4354;DHT22;11018;51.258;6.806;2022-07-30T15:04:18;30.70;1.70
4354;DHT22;11018;51.258;6.806;2022-07-30T15:06:44;31.30;1.00
4354;DHT22;11018;51.258;6.806;2022-07-30T15:09:09;31.90;1.00
4354;DHT22;11018;51.258;6.806;2022-07-30T15:11:35;32.40;1.00
4354;DHT22;11018;51.258;6.806;2022-07-30T15:14:01;32.40;1.00
4354;DHT22;11018;51.258;6.806;2022-07-30T15:16:26;31.90;1.00
4354;DHT22;11018;51.258;6.806;2022-07-30T15:18:52;31.60;1.00
4354;DHT22;11018;51.258;6.806;2022-07-30T15:21:17;30.50;1.00
4354;DHT22;11018;51.258;6.806;2022-07-30T15:23:43;30.70;1.00
4354;DHT22;11018;51.258;6.806;2022-07-30T15:26:09;31.50;1.00
4354;DHT22;11018;51.258;6.806;2022-07-30T15:28:35;32.50;1.00
4354;DHT22;11018;51.258;6.806;2022-07-30T15:31:00;33.10;1.00
4354;DHT22;11018;51.258;6.806;2022-07-30T15:33:26;32.70;1.00
4354;DHT22;11018;51.258;6.806;2022-07-30T15:35:51;31.30;1.80
4354;DHT22;11018;51.258;6.806;2022-07-30T15:38:17;31.60;1.00
4354;DHT22;11018;51.258;6.806;2022-07-30T15:40:43;31.80;1.00
4354;DHT22;11018;51.258;6.806;2022-07-30T15:43:09;32.20;1.00
4354;DHT22;11018;51.258;6.806;2022-07-30T15:45:34;32.80;1.00
4354;DHT22;11018;51.258;6.806;2022-07-30T15:48:00;33.00;1.00
4354;DHT22;11018;51.258;6.806;2022-07-30T15:50:26;32.00;1.00
4354;DHT22;11018;51.258;6.806;2022-07-30T15:52:52;30.30;2.20
4354;DHT22;11018;51.258;6.806;2022-07-30T15:55:18;29.70;3.30
4354;DHT22;11018;51.258;6.806;2022-07-30T15:57:45;30.00;3.20
4354;DHT22;11018;51.258;6.806;2022-07-30T16:00:13;29.90;2.30
4354;DHT22;11018;51.258;6.806;2022-07-30T16:02:38;29.20;3.90
4354;DHT22;11018;51.258;6.806;2022-07-30T16:05:06;29.00;4.40
4354;DHT22;11018;51.258;6.806;2022-07-30T16:07:32;29.30;4.10
4354;DHT22;11018;51.258;6.806;2022-07-30T16:09:57;30.20;3.10
4354;DHT22;11018;51.258;6.806;2022-07-30T16:12:23;31.10;1.70
4354;DHT22;11018;51.258;6.806;2022-07-30T16:14:49;30.80;1.80
4354;DHT22;11018;51.258;6.806;2022-07-30T16:17:15;29.40;3.50
4354;DHT22;11018;51.258;6.806;2022-07-30T16:19:41;28.60;4.80